Time;durP1;ratioP1;P1;durP2;ratioP2;P2;SDS_P1;SDS_P2;PMS_P1;PMS_P2;Temp;Humidity;BMP_temperature;BMP_pressure;BME280_temperature;BME280_humidity;BME280_pressure;Samples;Min_cycle;Max_cycle;Signal;HPM_P1;HPM_P2
2022/06/13 00:00:52;;;;;;;1.98;1.02;;;;;;;14.59;81.65;98723.56;5057300;28;20017;-70
2022/06/13 00:03:17;;;;;;;3.28;1.33;;;;;;;14.45;82.71;98731.09;5050536;28;20025;-70
2022/06/13 00:05:43;;;;;;;4.30;1.33;;;;;;;14.33;83.56;98729.72;5045802;28;20034;-70
2022/06/13 00:08:08;;;;;;;4.40;1.50;;;;;;;14.35;85.01;98729.66;5045726;28;20320;-70
2022/06/13 00:10:34;;;;;;;2.33;1.23;;;;;;;14.26;85.93;98724.66;5045641;28;20032;-70
2022/06/13 00:12:59;;;;;;;2.38;1.20;;;;;;;14.17;86.67;98719.63;5055826;28;20531;-70
2022/06/13 00:15:25;;;;;;;3.80;1.40;;;;;;;14.05;85.53;98714.75;5064757;28;20027;-70
2022/06/13 00:17:50;;;;;;;2.13;1.20;;;;;;;13.96;84.59;98709.75;5061985;28;20095;-70
2022/06/13 00:20:15;;;;;;;2.88;1.10;;;;;;;13.93;85.76;98709.84;5059238;28;20017;-70
2022/06/13 00:22:41;;;;;;;5.55;1.20;;;;;;;13.91;84.66;98706.38;5050529;28;20033;-70
2022/06/13 00:25:07;;;;;;;3.55;1.48;;;;;;;13.83;84.95;98700.47;5045224;28;20021;-70
2022/06/13 00:27:33;;;;;;;6.45;1.70;;;;;;;13.70;85.10;98697.31;5045316;28;20328;-70
2022/06/13 00:29:58;;;;;;;5.32;1.27;;;;;;;13.57;86.02;98703.88;5046662;28;20056;-70
2022/06/13 00:32:24;;;;;;;4.07;1.35;;;;;;;13.45;86.79;98714.81;5045252;28;20021;-70
2022/06/13 00:34:50;;;;;;;3.30;1.08;;;;;;;13.45;86.22;98711.34;5051156;28;20048;-70
2022/06/13 00:37:16;;;;;;;6.70;1.85;;;;;;;13.40;87.11;98723.81;5064814;28;20021;-70
2022/06/13 00:39:42;;;;;;;6.90;1.90;;;;;;;13.36;86.88;98722.19;5064255;28;20433;-70
2022/06/13 00:42:07;;;;;;;3.47;1.25;;;;;;;13.29;87.51;98725.91;5064499;28;20240;-70
2022/06/13 00:44:36;;;;;;;2.72;1.30;;;;;;;13.10;85.99;98714.13;5048186;28;20364;-70
2022/06/13 00:47:02;;;;;;;8.25;1.58;;;;;;;12.76;86.27;98711.50;5053038;28;20370;-70
2022/06/13 00:49:41;;;;;;;3.67;1.50;;;;;;;12.72;86.55;98723.06;5045995;28;20367;-70
2022/06/13 00:52:17;;;;;;;3.80;1.40;;;;;;;12.53;87.96;98725.31;5057012;28;20016;-70
2022/06/13 00:54:46;;;;;;;2.90;1.00;;;;;;;12.61;88.92;98733.91;5047917;28;20029;-70
2022/06/13 00:57:23;;;;;;;3.70;1.50;;;;;;;12.58;89.00;98726.06;5044679;28;20029;-70
2022/06/13 00:59:53;;;;;;;2.92;1.15;;;;;;;12.71;89.18;98738.03;5052478;28;20052;-70
2022/06/13 01:02:18;;;;;;;4.45;1.35;;;;;;;12.70;88.70;98744.25;5052877;28;20028;-70
2022/06/13 01:04:46;;;;;;;6.20;1.25;;;;;;;12.54;89.23;98748.19;5059587;28;20194;-70
2022/06/13 01:07:12;;;;;;;3.22;1.30;;;;;;;12.49;88.59;98749.19;5044582;28;20078;-70
2022/06/13 01:12:24;;;;;;;7.15;1.60;;;;;;;12.44;88.84;98744.00;5052597;28;20343;-70
2022/06/13 01:15:03;;;;;;;3.22;1.40;;;;;;;12.32;89.38;98743.47;5045627;28;20225;-70
2022/06/13 01:17:46;;;;;;;6.22;1.70;;;;;;;12.30;89.56;98751.41;5044279;28;20052;-70
2022/06/13 01:20:46;;;;;;;2.42;1.33;;;;;;;12.23;90.19;98746.31;5047580;28;20027;-70
2022/06/13 01:23:26;;;;;;;2.25;1.17;;;;;;;12.36;89.95;98755.66;5063550;28;20052;-70
2022/06/13 01:26:01;;;;;;;5.03;1.70;;;;;;;12.04;89.49;98740.63;5063668;28;20029;-70
2022/06/13 01:28:51;;;;;;;3.05;1.27;;;;;;;12.00;91.03;98741.59;5061972;28;20024;-70
2022/06/13 01:31:46;;;;;;;1.83;1.25;;;;;;;12.04;91.05;98748.53;5046700;28;20021;-70
2022/06/13 01:34:53;;;;;;;1.65;1.10;;;;;;;12.04;90.96;98748.53;5061840;28;20232;-70
2022/06/13 01:37:43;;;;;;;1.92;1.05;;;;;;;11.99;91.30;98750.41;5053580;28;20027;-70
2022/06/13 01:40:23;;;;;;;3.65;1.17;;;;;;;11.85;91.07;98756.88;5063545;28;20332;-70
2022/06/13 01:42:49;;;;;;;12.07;1.55;;;;;;;11.87;91.10;98750.66;5044128;28;20136;-70
2022/06/13 01:45:40;;;;;;;3.03;1.40;;;;;;;11.78;91.17;98756.19;5044076;28;20450;-70
2022/06/13 01:48:36;;;;;;;2.03;1.10;;;;;;;11.80;91.01;98754.34;5053541;28;20033;-70
2022/06/13 01:51:08;;;;;;;2.88;1.52;;;;;;;11.61;91.21;98752.97;5044221;28;20259;-70
2022/06/13 01:53:56;;;;;;;;;;;;;;;11.59;90.50;98749.53;5044727;28;20084;-70
2022/06/13 01:56:32;;;;;;;5.78;1.38;;;;;;;11.58;91.64;98750.41;5047773;28;19909;-70
2022/06/13 01:59:04;;;;;;;4.00;1.70;;;;;;;11.46;91.78;98748.06;5043985;28;20025;-70
2022/06/13 02:01:45;;;;;;;1.77;1.40;;;;;;;11.36;91.95;98751.75;5053446;28;20372;-70
2022/06/13 02:04:17;;;;;;;2.55;1.23;;;;;;;11.14;91.80;98761.03;5063278;28;20036;-70
2022/06/13 02:07:00;;;;;;;2.90;1.48;;;;;;;11.19;93.86;98763.53;5058380;28;20367;-70
2022/06/13 02:09:35;;;;;;;2.80;1.38;;;;;;;11.00;93.03;98763.03;5048008;28;20071;-70
2022/06/13 02:12:01;;;;;;;3.05;1.60;;;;;;;10.94;93.85;98758.75;5043718;28;20277;-70
2022/06/13 02:14:41;;;;;;;4.30;1.58;;;;;;;10.94;94.38;98752.63;5058846;28;20040;-70
2022/06/13 02:17:23;;;;;;;4.28;1.25;;;;;;;11.03;94.34;98752.44;5059761;28;20313;-70
2022/06/13 02:20:00;;;;;;;4.85;1.83;;;;;;;11.09;96.46;98762.00;5060130;28;20383;-70
2022/06/13 02:22:35;;;;;;;8.02;2.00;;;;;;;11.05;97.19;98758.56;5043723;28;20025;-70
2022/06/13 02:25:15;;;;;;;2.83;1.33;;;;;;;11.02;97.31;98753.34;5061448;28;20035;-70
2022/06/13 02:27:44;;;;;;;6.13;1.98;;;;;;;11.00;97.35;98757.78;5062977;28;20100;-70
2022/06/13 02:30:14;;;;;;;1.35;1.10;;;;;;;11.11;96.45;98773.38;5051300;28;20030;-70
2022/06/13 02:32:53;;;;;;;4.68;1.98;;;;;;;11.03;95.53;98762.97;5048459;28;20036;-70
2022/06/13 02:35:44;;;;;;;2.33;1.40;;;;;;;10.98;94.58;98764.81;5051510;28;20260;-70
2022/06/13 02:38:24;;;;;;;3.20;1.67;;;;;;;10.93;94.96;98761.41;5042670;28;20033;-70
2022/06/13 02:41:19;;;;;;;3.33;1.70;;;;;;;10.80;94.53;98754.66;5043526;28;20336;-70
2022/06/13 02:43:52;;;;;;;3.20;1.58;;;;;;;10.64;94.29;98748.78;5051511;28;20260;-70
2022/06/13 02:46:27;;;;;;;11.15;1.77;;;;;;;10.64;95.15;98747.94;5055347;28;20024;-70
2022/06/13 02:48:57;;;;;;;2.78;1.52;;;;;;;10.66;97.21;98754.00;5051047;28;20213;-70
2022/06/13 02:51:48;;;;;;;4.50;1.48;;;;;;;10.61;96.50;98753.25;5047498;28;20254;-70
2022/06/13 02:54:21;;;;;;;6.97;1.60;;;;;;;10.56;96.53;98748.06;5047067;28;20029;-70
2022/06/13 03:00:13;;;;;;;4.47;1.63;;;;;;;10.67;95.11;98753.13;5046993;28;20051;-70
2022/06/13 03:02:47;;;;;;;4.03;1.40;;;;;;;10.54;94.83;98746.34;5046970;28;20036;-70
2022/06/13 03:05:12;;;;;;;6.45;1.25;;;;;;;10.61;94.58;98747.97;5060777;28;20025;-70
2022/06/13 03:07:53;;;;;;;2.35;1.33;;;;;;;10.50;94.65;98760.44;5066036;28;20087;-70
2022/06/13 03:10:22;;;;;;;4.93;1.92;;;;;;;10.50;94.54;98755.19;5052507;28;20060;-70
2022/06/13 03:13:09;;;;;;;5.40;1.83;;;;;;;10.32;95.05;98758.13;5047868;28;20029;-70
2022/06/13 03:16:02;;;;;;;7.47;1.80;;;;;;;10.25;95.97;98753.88;5047424;28;20033;-70
2022/06/13 03:18:32;;;;;;;2.13;1.30;;;;;;;10.32;95.59;98756.34;5046798;28;20210;-70
2022/06/13 03:21:13;;;;;;;2.35;1.38;;;;;;;10.21;95.37;98762.69;5055335;28;20021;-70
2022/06/13 03:23:47;;;;;;;2.88;1.45;;;;;;;10.13;95.81;98770.69;5066011;28;20028;-70
2022/06/13 03:26:17;;;;;;;5.07;1.52;;;;;;;10.17;96.93;98776.78;5065671;28;20037;-70
2022/06/13 03:28:54;;;;;;;20.85;2.65;;;;;;;10.18;96.78;98781.13;5065930;28;20088;-70
2022/06/13 03:31:26;;;;;;;4.95;1.30;;;;;;;10.28;96.75;98780.97;5065508;28;20228;-70
2022/06/13 03:33:57;;;;;;;9.48;1.98;;;;;;;10.03;96.46;98784.00;5063671;28;20320;-70
2022/06/13 03:36:34;;;;;;;12.50;2.13;;;;;;;9.97;96.43;98778.81;5055643;28;20021;-70
2022/06/13 03:39:07;;;;;;;8.75;1.75;;;;;;;9.94;96.91;98778.88;5058402;28;20022;-70
2022/06/13 03:41:36;;;;;;;2.58;1.60;;;;;;;10.04;96.44;98778.72;5057929;28;20028;-70
2022/06/13 03:44:46;;;;;;;4.03;1.80;;;;;;;10.05;96.37;98784.81;5065666;28;20025;-70
2022/06/13 03:47:24;;;;;;;4.85;1.50;;;;;;;10.12;96.31;98789.13;5028053;28;20032;-70
2022/06/13 03:50:00;;;;;;;2.38;1.23;;;;;;;10.15;96.11;98789.94;5036762;28;20033;-70
2022/06/13 03:52:30;;;;;;;5.72;1.50;;;;;;;10.14;95.88;98787.34;5024525;28;20213;-70
2022/06/13 03:55:09;;;;;;;2.42;1.40;;;;;;;10.22;96.13;98802.13;5024482;28;20253;-70
2022/06/13 03:57:39;;;;;;;3.58;1.58;;;;;;;10.28;95.44;98801.13;5032372;28;20029;-70
2022/06/13 04:00:15;;;;;;;5.07;2.00;;;;;;;10.29;95.74;98797.66;5026147;28;20025;-70
2022/06/13 04:02:43;;;;;;;3.25;1.70;;;;;;;10.37;96.43;98796.63;5025425;28;20081;-70
2022/06/13 04:05:42;;;;;;;3.45;1.70;;;;;;;10.46;95.85;98806.13;5029769;28;20287;-70
2022/06/13 04:08:12;;;;;;;1.65;1.52;;;;;;;10.37;94.29;98811.53;4977413;28;20098;-70
2022/06/13 04:11:16;;;;;;;3.42;1.70;;;;;;;10.24;94.72;98815.25;5043265;28;20037;-70
2022/06/13 04:14:10;;;;;;;3.92;1.50;;;;;;;10.39;94.76;98812.38;5043961;28;20281;-70
2022/06/13 04:17:00;;;;;;;4.80;1.95;;;;;;;10.17;95.11;98813.59;5043886;28;20032;-70
2022/06/13 04:20:03;;;;;;;8.82;2.15;;;;;;;10.16;96.71;98817.13;5045364;28;20124;-70
2022/06/13 04:22:49;;;;;;;4.85;2.47;;;;;;;10.17;98.25;98813.59;5045483;28;20033;-70
2022/06/13 04:25:26;;;;;;;3.35;1.75;;;;;;;10.30;98.03;98815.16;5045400;28;20025;-70
2022/06/13 04:27:54;;;;;;;2.67;1.60;;;;;;;10.48;96.60;98821.00;5045258;28;20025;-70
2022/06/13 04:30:25;;;;;;;6.07;1.88;;;;;;;10.65;96.15;98823.34;5045459;28;20415;-70
2022/06/13 04:33:06;;;;;;;5.82;1.98;;;;;;;11.71;93.39;98828.38;5045252;28;20084;-70
2022/06/13 04:35:33;;;;;;;3.63;1.88;;;;;;;12.84;88.27;98833.66;5045232;28;20084;-70
2022/06/13 04:38:01;;;;;;;4.72;1.15;;;;;;;13.75;83.60;98842.66;5045197;28;20028;-70
2022/06/13 04:40:29;;;;;;;4.20;1.65;;;;;;;14.46;78.96;98828.19;5045079;28;20056;-70
2022/06/13 04:42:56;;;;;;;3.83;1.73;;;;;;;14.87;75.90;98830.31;5045045;28;20217;-70
2022/06/13 04:45:28;;;;;;;4.30;1.88;;;;;;;15.51;74.55;98837.84;5044978;28;20025;-70
2022/06/13 04:47:56;;;;;;;1.88;1.00;;;;;;;15.75;73.59;98850.22;5044933;28;20087;-70
2022/06/13 04:50:29;;;;;;;3.67;1.48;;;;;;;16.21;72.08;98850.25;5044788;28;20108;-70
2022/06/13 04:52:59;;;;;;;4.32;2.00;;;;;;;16.77;70.85;98845.38;5044830;28;20052;-70
2022/06/13 04:55:54;;;;;;;1.45;1.00;;;;;;;17.16;68.76;98854.38;5044789;28;20028;-70
2022/06/13 04:58:30;;;;;;;3.97;1.35;;;;;;;17.16;69.48;98863.22;5040164;28;20064;-70
2022/06/13 05:01:05;;;;;;;3.72;1.60;;;;;;;17.71;67.85;98863.50;5043530;28;20021;-70
2022/06/13 05:03:36;;;;;;;6.10;1.35;;;;;;;18.16;66.93;98866.78;5044714;28;20021;-70
2022/06/13 05:06:06;;;;;;;6.07;1.43;;;;;;;18.39;65.50;98859.50;5044759;28;20021;-70
2022/06/13 05:08:36;;;;;;;4.22;1.67;;;;;;;18.74;65.66;98865.81;5044578;28;20021;-70
2022/06/13 05:11:16;;;;;;;2.75;1.35;;;;;;;19.05;63.82;98866.03;5044572;28;20089;-70
2022/06/13 05:13:43;;;;;;;3.25;1.20;;;;;;;19.39;63.03;98871.41;5044450;28;20021;-70
2022/06/13 05:16:39;;;;;;;3.10;1.40;;;;;;;19.62;63.08;98879.13;5044452;28;20021;-70
2022/06/13 05:19:31;;;;;;;4.07;1.52;;;;;;;19.86;63.59;98883.19;5044121;28;20159;-70
2022/06/13 05:22:15;;;;;;;4.40;1.20;;;;;;;19.95;61.31;98882.69;5044289;28;20024;-70
2022/06/13 05:25:03;;;;;;;1.58;1.20;;;;;;;20.50;61.96;98886.81;5044370;28;20354;-70
2022/06/13 05:27:28;;;;;;;5.80;1.90;;;;;;;20.90;59.19;98883.66;5044227;28;20018;-70
2022/06/13 05:29:54;;;;;;;2.58;1.50;;;;;;;20.94;59.33;98881.69;5044147;28;20215;-70
2022/06/13 05:32:22;;;;;;;2.45;1.38;;;;;;;20.94;59.36;98890.59;5044217;28;20021;-70
2022/06/13 05:34:49;;;;;;;5.82;2.22;;;;;;;20.86;60.50;98892.81;5044197;28;20028;-70
2022/06/13 05:37:16;;;;;;;6.00;1.50;;;;;;;20.97;60.20;98893.09;5044143;28;20211;-70
2022/06/13 05:39:42;;;;;;;3.78;1.40;;;;;;;20.81;62.75;98889.53;5044123;28;20025;-70
2022/06/13 05:42:09;;;;;;;5.25;2.05;;;;;;;21.78;58.67;98900.81;5044097;28;20021;-70
2022/06/13 05:44:35;;;;;;;3.70;1.55;;;;;;;21.49;57.87;98906.13;5044058;28;20108;-70
2022/06/13 05:47:01;;;;;;;7.35;2.20;;;;;;;21.35;59.99;98903.41;5044071;28;20021;-70
2022/06/13 05:49:27;;;;;;;6.93;2.20;;;;;;;21.91;58.02;98903.59;5043985;28;20032;-70
2022/06/13 05:51:52;;;;;;;6.28;1.70;;;;;;;22.63;56.24;98909.81;5043874;28;20029;-70
2022/06/13 05:54:18;;;;;;;6.32;2.03;;;;;;;22.77;56.68;98913.31;5043934;28;20025;-70
2022/06/13 05:56:43;;;;;;;5.35;1.98;;;;;;;22.83;58.03;98912.06;5043892;28;20041;-70
2022/06/13 05:59:09;;;;;;;4.78;1.90;;;;;;;23.72;55.21;98923.09;5043881;28;20022;-70
2022/06/13 06:01:35;;;;;;;9.52;1.70;;;;;;;24.05;53.67;98915.47;5044102;28;20301;-70
2022/06/13 06:04:02;;;;;;;5.28;1.75;;;;;;;24.65;52.22;98919.22;5044129;28;20067;-70
2022/06/13 06:06:30;;;;;;;5.78;2.13;;;;;;;24.87;48.31;98914.03;5043812;28;20080;-70
2022/06/13 06:08:56;;;;;;;7.63;2.10;;;;;;;25.01;49.60;98916.59;5043750;28;20216;-70
2022/06/13 06:11:23;;;;;;;6.07;2.00;;;;;;;24.54;50.22;98911.03;5043660;28;20045;-70
2022/06/13 06:13:48;;;;;;;5.47;1.85;;;;;;;24.76;50.01;98911.25;5042739;28;20032;-70
2022/06/13 06:16:17;;;;;;;4.63;1.63;;;;;;;25.12;49.95;98918.50;5043733;28;20017;-70
2022/06/13 06:18:43;;;;;;;5.60;2.30;;;;;;;25.92;47.05;98928.59;5043602;28;20267;-70
2022/06/13 06:21:09;;;;;;;5.13;2.25;;;;;;;25.51;46.83;98920.09;5043832;28;20017;-70
2022/06/13 06:23:35;;;;;;;10.45;2.33;;;;;;;26.21;43.06;98924.53;5047670;28;20066;-70
2022/06/13 06:26:02;;;;;;;6.10;2.00;;;;;;;26.25;43.51;98928.69;5047884;28;20017;-70
2022/06/13 06:28:28;;;;;;;7.80;2.55;;;;;;;26.11;43.36;98926.22;5047734;28;20029;-70
2022/06/13 06:30:56;;;;;;;8.70;2.30;;;;;;;25.90;46.42;98930.53;5047471;28;20022;-70
2022/06/13 06:33:22;;;;;;;6.70;2.08;;;;;;;25.81;46.34;98928.56;5047476;28;20091;-70
2022/06/13 06:35:48;;;;;;;4.80;1.67;;;;;;;26.14;45.26;98926.00;5047439;28;20029;-70
2022/06/13 06:38:14;;;;;;;6.43;1.88;;;;;;;26.41;43.03;98930.09;5047406;28;20131;-70
2022/06/13 06:40:40;;;;;;;8.60;2.50;;;;;;;26.00;42.80;98935.13;5047362;28;20057;-70
2022/06/13 06:43:06;;;;;;;6.53;2.05;;;;;;;26.16;42.86;98935.69;5047530;28;20343;-70
2022/06/13 06:45:32;;;;;;;2.65;1.70;;;;;;;26.00;43.05;98934.31;5047307;28;20029;-70
2022/06/13 06:47:57;;;;;;;5.32;1.73;;;;;;;25.75;42.31;98929.03;5047216;28;20217;-70
2022/06/13 06:50:30;;;;;;;8.32;2.25;;;;;;;26.23;43.36;98936.91;5047091;28;20106;-70
2022/06/13 06:52:55;;;;;;;7.15;1.88;;;;;;;26.61;42.19;98936.63;5047390;28;20217;-70
2022/06/13 07:00:54;;;;;;;6.03;1.85;;;;;;;27.00;40.72;98933.44;5046990;28;20060;-70
2022/06/13 07:03:19;;;;;;;9.30;2.25;;;;;;;27.35;41.31;98939.56;5046966;28;20032;-70
2022/06/13 07:05:46;;;;;;;7.78;2.25;;;;;;;26.85;41.89;98934.66;5046952;28;20046;-70
2022/06/13 07:08:13;;;;;;;6.57;2.20;;;;;;;26.66;42.10;98939.81;5046830;28;20032;-70
2022/06/13 07:10:38;;;;;;;8.48;2.05;;;;;;;27.09;42.80;98936.25;5046744;28;20059;-70
2022/06/13 07:13:04;;;;;;;3.78;1.83;;;;;;;26.83;40.59;98942.06;5046769;28;20021;-70
2022/06/13 07:15:29;;;;;;;4.00;1.90;;;;;;;27.13;41.60;98936.88;5046748;28;20025;-70
2022/06/13 07:17:55;;;;;;;8.75;2.33;;;;;;;27.19;40.90;98944.47;5046554;28;20046;-70
2022/06/13 07:20:20;;;;;;;3.63;2.00;;;;;;;27.03;41.87;98938.59;5046660;28;20025;-70
2022/06/13 07:22:48;;;;;;;6.45;2.13;;;;;;;26.98;42.22;98938.09;5046640;28;20248;-70
2022/06/13 07:25:17;;;;;;;8.43;2.15;;;;;;;26.39;42.94;98947.38;5046519;28;20088;-70
2022/06/13 07:27:42;;;;;;;8.23;2.00;;;;;;;26.96;41.32;98948.19;5046446;28;20021;-70
2022/06/13 07:30:08;;;;;;;5.30;1.95;;;;;;;26.65;42.08;98939.00;5046418;28;20021;-70
2022/06/13 07:32:34;;;;;;;6.43;1.98;;;;;;;27.01;40.66;98951.38;5045814;28;20036;-70
2022/06/13 07:35:01;;;;;;;7.22;1.85;;;;;;;27.12;41.03;98944.09;5045663;28;20088;-70
2022/06/13 07:40:11;;;;;;;6.22;2.03;;;;;;;26.96;39.11;98942.78;5046294;28;20029;-70
2022/06/13 07:42:43;;;;;;;7.63;2.40;;;;;;;26.31;41.47;98952.50;5046264;28;20028;-70
2022/06/13 07:45:13;;;;;;;6.72;1.65;;;;;;;26.05;41.28;98948.28;5046409;28;20026;-70
2022/06/13 07:47:39;;;;;;;5.90;2.08;;;;;;;27.06;40.94;98955.44;5046176;28;20321;-70
2022/06/13 07:50:06;;;;;;;6.88;2.05;;;;;;;26.36;41.14;98944.94;5046055;28;20088;-70
2022/06/13 07:52:32;;;;;;;7.22;1.80;;;;;;;27.33;39.85;98960.44;5046314;28;20044;-70
2022/06/13 07:54:57;;;;;;;6.88;2.15;;;;;;;27.58;40.10;98962.84;5046236;28;20025;-70
2022/06/13 07:57:22;;;;;;;4.55;1.95;;;;;;;26.72;40.72;98950.16;5045961;28;20217;-70
2022/06/13 07:59:48;;;;;;;6.32;2.00;;;;;;;27.29;40.46;98958.97;5045846;28;20216;-70
2022/06/13 08:02:18;;;;;;;14.18;2.75;;;;;;;27.86;40.45;98962.28;5045874;28;20018;-70
2022/06/13 08:04:44;;;;;;;4.57;1.90;;;;;;;28.36;38.14;98960.69;5045827;28;20025;-70
2022/06/13 08:07:10;;;;;;;5.45;1.98;;;;;;;28.77;37.86;98955.25;5045856;28;20022;-70
2022/06/13 08:09:37;;;;;;;7.15;1.65;;;;;;;28.78;37.65;98957.81;5045967;28;20041;-70
2022/06/13 08:12:03;;;;;;;7.38;2.38;;;;;;;28.16;38.08;98948.00;5045843;28;20028;-70
2022/06/13 08:14:29;;;;;;;3.22;1.30;;;;;;;28.22;37.10;98953.75;5045888;28;20182;-70
2022/06/13 08:16:55;;;;;;;10.38;1.95;;;;;;;27.18;40.03;98942.78;5045557;28;20072;-70
2022/06/13 08:19:20;;;;;;;8.02;1.85;;;;;;;26.24;39.10;98927.00;5045400;28;20041;-70
2022/06/13 08:21:46;;;;;;;5.15;1.20;;;;;;;27.00;36.66;98938.84;5045729;28;20059;-70
2022/06/13 08:24:11;;;;;;;4.05;1.58;;;;;;;26.98;36.85;98928.16;5045454;28;20411;-70
2022/06/13 08:26:37;;;;;;;8.07;1.90;;;;;;;26.74;38.01;98938.22;5045452;28;20091;-70
2022/06/13 08:29:03;;;;;;;9.15;2.67;;;;;;;26.97;38.01;98934.56;5045216;28;20092;-70
2022/06/13 08:31:31;;;;;;;7.03;1.65;;;;;;;27.86;35.44;98940.66;5045191;28;20044;-70
2022/06/13 08:33:56;;;;;;;4.90;1.80;;;;;;;27.05;37.23;98931.25;5045217;28;20362;-70
2022/06/13 08:36:22;;;;;;;7.15;2.08;;;;;;;27.24;35.92;98936.91;5045195;28;20021;-70
2022/06/13 08:38:47;;;;;;;8.77;1.83;;;;;;;27.04;37.14;98934.91;5045177;28;20021;-70
2022/06/13 08:41:15;;;;;;;3.65;1.40;;;;;;;26.25;36.17;98928.69;5045100;28;20021;-70
2022/06/13 08:44:11;;;;;;;5.43;1.80;;;;;;;27.16;35.00;98942.03;5045006;28;20028;-70
2022/06/13 08:46:39;;;;;;;3.97;1.70;;;;;;;27.06;35.92;98936.53;5045036;28;20033;-70
2022/06/13 08:49:23;;;;;;;6.35;1.67;;;;;;;27.45;36.69;98953.16;5045003;28;20040;-70
2022/06/13 08:52:16;;;;;;;9.02;2.30;;;;;;;27.35;35.13;98939.56;5045095;28;20313;-70
2022/06/13 08:54:45;;;;;;;5.20;1.52;;;;;;;27.57;36.77;98950.31;5044894;28;20176;-70
2022/06/13 08:57:11;;;;;;;6.15;1.73;;;;;;;27.31;36.68;98938.09;5044847;28;20021;-70
2022/06/13 08:59:48;;;;;;;5.78;1.58;;;;;;;27.43;36.04;98952.44;5044760;28;20036;-70
2022/06/13 09:02:20;;;;;;;5.60;1.33;;;;;;;28.14;34.42;98956.25;5044740;28;20182;-70
2022/06/13 09:04:58;;;;;;;5.25;1.55;;;;;;;28.68;31.90;98954.22;5044724;28;20027;-70
2022/06/13 09:07:39;;;;;;;6.28;1.45;;;;;;;28.06;32.98;98947.91;5044641;28;20132;-70
2022/06/13 09:10:07;;;;;;;;;;;;;;;28.52;33.91;98961.09;5045000;28;20028;-70
2022/06/13 09:12:46;;;;;;;8.93;1.67;;;;;;;28.47;34.55;98952.53;5044509;28;19920;-70
2022/06/13 09:15:20;;;;;;;4.47;1.83;;;;;;;28.50;34.98;98952.25;5044490;28;20028;-70
2022/06/13 09:17:55;;;;;;;6.13;1.92;;;;;;;28.37;33.69;98940.72;5044280;28;20100;-70
2022/06/13 09:20:43;;;;;;;4.05;1.27;;;;;;;28.77;32.48;98953.41;5044652;28;20325;-70
2022/06/13 09:23:22;;;;;;;5.45;1.40;;;;;;;28.00;34.77;98951.16;5044588;28;20049;-70
2022/06/13 09:25:55;;;;;;;3.25;1.50;;;;;;;28.35;34.50;98965.22;5044273;28;20084;-70
2022/06/13 09:28:39;;;;;;;7.18;1.40;;;;;;;28.16;35.23;98946.13;5044270;28;20220;-70
2022/06/13 09:31:17;;;;;;;9.13;1.95;;;;;;;28.18;34.03;98955.00;5044193;28;20033;-70
2022/06/13 09:33:51;;;;;;;5.50;1.65;;;;;;;28.16;35.65;98954.25;5044225;28;20048;-70
2022/06/13 09:36:39;;;;;;;7.75;1.50;;;;;;;28.95;32.78;98951.75;5044189;28;20036;-70
2022/06/13 09:39:08;;;;;;;4.40;1.70;;;;;;;28.11;32.87;98951.09;5044390;28;20055;-70
2022/06/13 09:41:49;;;;;;;2.47;1.30;;;;;;;27.97;32.13;98967.63;5044152;28;20189;-70
2022/06/13 09:44:38;;;;;;;5.82;1.50;;;;;;;27.61;32.54;98957.19;5044139;28;20220;-70
2022/06/13 09:47:34;;;;;;;5.85;1.65;;;;;;;27.18;34.82;98954.41;5044083;28;20032;-70
2022/06/13 09:50:07;;;;;;;3.75;1.40;;;;;;;27.76;34.00;98966.72;5044013;28;20021;-70
2022/06/13 09:52:35;;;;;;;5.35;2.10;;;;;;;27.67;35.15;98966.63;5043937;28;20052;-70
2022/06/13 09:55:21;;;;;;;4.65;1.63;;;;;;;28.06;35.19;98969.56;5043951;28;20025;-70
2022/06/13 09:57:52;;;;;;;8.02;1.90;;;;;;;27.98;33.45;98969.38;5043288;28;20317;-70
2022/06/13 10:00:26;;;;;;;4.28;1.52;;;;;;;27.81;34.64;98963.63;5043919;28;20027;-70
2022/06/13 10:03:18;;;;;;;6.85;1.60;;;;;;;27.67;35.36;98967.50;5043859;28;20123;-70
2022/06/13 10:05:58;;;;;;;3.85;1.25;;;;;;;28.15;34.41;98976.91;5043877;28;20033;-70
2022/06/13 10:08:54;;;;;;;10.00;1.77;;;;;;;28.02;34.22;98967.25;5043873;28;20029;-70
2022/06/13 10:11:53;;;;;;;7.03;1.65;;;;;;;27.78;34.79;98964.75;5043698;28;20071;-70
2022/06/13 10:14:30;;;;;;;4.20;1.40;;;;;;;28.03;36.88;98980.66;5043735;28;20021;-70
2022/06/13 10:17:09;;;;;;;5.50;1.65;;;;;;;28.53;35.93;98970.94;5043743;28;20032;-70
2022/06/13 10:19:58;;;;;;;6.40;1.60;;;;;;;28.29;35.40;98963.06;5043564;28;20252;-70
2022/06/13 10:22:33;;;;;;;5.80;1.40;;;;;;;27.74;36.07;98968.69;5043668;28;20079;-70
2022/06/13 10:25:10;;;;;;;3.90;1.70;;;;;;;27.82;36.44;98965.34;5043665;28;20033;-70
2022/06/13 10:27:56;;;;;;;6.47;1.63;;;;;;;28.02;34.57;98965.41;5043556;28;20046;-70
2022/06/13 10:30:54;;;;;;;5.65;1.67;;;;;;;27.31;35.85;98965.13;5043567;28;20041;-70
2022/06/13 10:33:37;;;;;;;4.38;2.03;;;;;;;27.96;33.69;98968.63;5043632;28;20025;-70
2022/06/13 10:36:18;;;;;;;3.22;1.55;;;;;;;27.81;35.41;98964.47;5043524;28;20092;-70
2022/06/13 10:39:04;;;;;;;5.93;1.98;;;;;;;27.95;34.53;98966.94;5043640;28;20032;-70
2022/06/13 10:41:31;;;;;;;6.28;1.85;;;;;;;28.45;34.70;98979.75;5043798;28;20332;-70
2022/06/13 10:43:58;;;;;;;6.18;1.80;;;;;;;28.58;32.90;98961.44;5043515;28;20256;-70
2022/06/13 10:46:24;;;;;;;4.38;1.60;;;;;;;28.33;33.75;98967.22;5043472;28;20025;-70
2022/06/13 10:49:07;;;;;;;1.77;1.40;;;;;;;27.84;34.34;98958.81;5043441;28;20021;-70
2022/06/13 10:51:33;;;;;;;8.43;1.65;;;;;;;25.90;36.79;98954.81;5043326;28;20128;-70
2022/06/13 10:54:15;;;;;;;7.68;1.92;;;;;;;25.19;38.51;98952.94;5043396;28;20029;-70
2022/06/13 10:57:04;;;;;;;;;;;;;;;25.70;38.63;98968.94;5043888;28;20026;-70
2022/06/13 10:59:33;;;;;;;3.95;1.73;;;;;;;24.98;38.67;98949.13;5037918;28;19979;-70
2022/06/13 11:02:06;;;;;;;3.88;1.55;;;;;;;24.44;40.10;98961.13;5043373;28;20317;-70
2022/06/13 11:04:36;;;;;;;4.60;1.60;;;;;;;25.35;39.00;98962.63;5043333;28;20316;-70
2022/06/13 11:07:14;;;;;;;6.93;1.70;;;;;;;25.45;39.23;98961.84;5043251;28;20021;-70
2022/06/13 11:09:46;;;;;;;7.47;1.92;;;;;;;26.56;37.19;98973.91;5046928;28;20032;-70
2022/06/13 11:12:23;;;;;;;3.92;1.80;;;;;;;27.07;34.79;98969.78;5046729;28;20355;-70
2022/06/13 11:23:58;;;;;;;3.33;1.77;;;;;;;23.42;41.94;98960.09;5046661;28;20031;-70
2022/06/13 11:29:18;;;;;;;5.65;2.15;;;;;;;24.00;41.45;98974.09;5046561;28;20028;-70
2022/06/13 11:31:58;;;;;;;5.75;2.20;;;;;;;24.68;40.08;98970.16;5046344;28;20321;-70
2022/06/13 11:34:32;;;;;;;3.45;1.40;;;;;;;25.23;39.91;98962.53;5046420;28;20036;-70
2022/06/13 11:37:12;;;;;;;3.55;1.73;;;;;;;25.09;38.25;98957.28;5046312;28;20040;-70
2022/06/13 11:39:48;;;;;;;6.10;2.25;;;;;;;24.29;41.18;98954.09;5046371;28;20025;-70
2022/06/13 11:42:27;;;;;;;4.38;2.00;;;;;;;24.30;40.76;98960.34;5046243;28;20017;-70
2022/06/13 11:45:03;;;;;;;10.35;2.72;;;;;;;24.10;40.95;98964.41;5046199;28;20036;-70
2022/06/13 11:47:45;;;;;;;6.72;1.95;;;;;;;24.41;40.05;98964.03;5046129;28;20036;-70
2022/06/13 11:50:25;;;;;;;6.13;1.58;;;;;;;24.51;39.10;98959.72;5046181;28;20026;-70
2022/06/13 11:55:56;;;;;;;7.85;2.00;;;;;;;24.80;39.58;98945.06;5056005;28;20037;-70
2022/06/13 11:58:30;;;;;;;3.65;1.90;;;;;;;24.62;39.06;98942.81;5045975;28;20021;-70
2022/06/13 12:01:09;;;;;;;4.85;2.33;;;;;;;23.78;40.96;98949.56;5045966;28;20025;-70
2022/06/13 12:03:36;;;;;;;4.38;1.85;;;;;;;23.99;40.65;98956.22;5045846;28;20032;-70
2022/06/13 12:06:15;;;;;;;8.27;2.45;;;;;;;24.03;41.55;98946.97;5045789;28;20052;-70
2022/06/13 12:08:41;;;;;;;7.35;2.95;;;;;;;24.27;42.01;98934.50;5045818;28;20021;-70
2022/06/13 12:11:13;;;;;;;6.88;1.92;;;;;;;24.35;42.09;98942.91;5045647;28;20355;-70
2022/06/13 12:13:42;;;;;;;10.10;2.30;;;;;;;24.14;42.97;98939.00;5045697;28;20255;-70
2022/06/13 12:16:23;;;;;;;6.78;2.15;;;;;;;24.12;42.81;98938.28;5045678;28;20025;-70
2022/06/13 12:19:27;;;;;;;6.50;2.10;;;;;;;24.49;39.73;98934.72;5045072;28;20325;-70
2022/06/13 12:21:52;;;;;;;4.65;1.80;;;;;;;24.29;41.03;98932.59;5045200;28;20123;-70
2022/06/13 12:24:37;;;;;;;5.22;1.88;;;;;;;24.03;42.52;98935.34;5045505;28;20317;-70
2022/06/13 12:27:42;;;;;;;4.30;1.80;;;;;;;24.27;41.74;98931.81;5045330;28;20040;-70
2022/06/13 12:30:26;;;;;;;5.97;2.08;;;;;;;24.50;41.83;98947.22;5045400;28;20025;-70
2022/06/13 12:32:56;;;;;;;4.32;1.67;;;;;;;24.67;42.80;98944.22;5045318;28;20051;-70
2022/06/13 12:35:40;;;;;;;8.52;2.35;;;;;;;24.63;41.26;98934.63;5045263;28;20025;-70